createdAt,value
2023-01-05T00:02:24.427Z,3.35
2023-01-05T00:07:28.473Z,3.50
2023-01-05T00:12:49.318Z,2.90
2023-01-05T00:18:11.867Z,3.30
2023-01-05T00:23:15.259Z,2.78
2023-01-05T00:28:18.853Z,2.65
2023-01-05T00:33:23.683Z,2.38
2023-01-05T00:43:30.347Z,2.63
2023-01-05T00:48:35.138Z,2.80
2023-01-05T00:58:41.791Z,2.45
2023-01-05T01:03:46.692Z,2.30
2023-01-05T01:08:50.400Z,2.55
2023-01-05T01:13:53.828Z,2.30
2023-01-05T01:19:02.943Z,2.55
2023-01-05T01:24:08.912Z,2.20
2023-01-05T01:29:12.702Z,2.80
2023-01-05T01:34:17.636Z,2.77
2023-01-05T01:39:21.294Z,2.92
2023-01-05T01:44:53.790Z,2.90
2023-01-05T01:50:00.310Z,3.10
2023-01-05T01:55:06.755Z,3.75
2023-01-05T02:00:15.080Z,3.53
2023-01-05T02:05:22.642Z,3.72
2023-01-05T02:10:37.438Z,4.10
2023-01-05T02:15:51.432Z,3.92
2023-01-05T02:21:15.003Z,4.33
2023-01-05T02:27:10.987Z,3.65
2023-01-05T02:32:22.247Z,3.17
2023-01-05T02:37:30.777Z,3.58
2023-01-05T02:42:36.932Z,2.45
2023-01-05T02:47:43.857Z,2.60
2023-01-05T02:52:55.769Z,2.25
2023-01-05T02:58:04.301Z,2.40
2023-01-05T03:03:14.842Z,2.30
2023-01-05T03:08:30.612Z,2.33
2023-01-05T03:13:44.775Z,2.55
2023-01-05T03:19:10.454Z,2.60
2023-01-05T03:24:31.775Z,2.43
2023-01-05T03:29:52.580Z,2.30
2023-01-05T03:35:20.981Z,2.33
2023-01-05T03:40:29.703Z,2.05
2023-01-05T03:45:40.753Z,2.20
2023-01-05T03:50:45.746Z,2.50
2023-01-05T03:55:49.208Z,2.15
2023-01-05T04:00:52.773Z,2.05
2023-01-05T04:05:57.620Z,2.35
2023-01-05T04:11:12.174Z,2.50
2023-01-05T04:16:15.694Z,2.38
2023-01-05T04:21:20.646Z,2.47
2023-01-05T04:26:24.128Z,2.23
2023-01-05T04:31:27.805Z,2.30
2023-01-05T04:36:32.809Z,3.03
2023-01-05T04:41:36.406Z,2.88
2023-01-05T04:46:40.137Z,2.65
2023-01-05T04:51:45.181Z,3.20
2023-01-05T04:56:48.822Z,2.90
2023-01-05T05:01:52.477Z,4.05
2023-01-05T05:06:57.650Z,3.07
2023-01-05T05:12:01.287Z,4.28
2023-01-05T05:17:04.988Z,3.10
2023-01-05T05:22:10.261Z,3.50
2023-01-05T05:27:13.986Z,2.57
2023-01-05T05:32:17.591Z,3.15
2023-01-05T05:37:22.617Z,2.88
2023-01-05T05:42:26.027Z,2.72
2023-01-05T05:47:29.737Z,2.83
2023-01-05T05:52:34.511Z,2.22
2023-01-05T06:02:41.367Z,2.20
2023-01-05T06:07:46.480Z,2.47
2023-01-05T06:12:49.838Z,2.00
2023-01-05T06:17:53.572Z,2.17
2023-01-05T06:22:58.350Z,2.83
2023-01-05T06:33:05.248Z,2.50
2023-01-05T06:38:11.466Z,2.77
2023-01-05T06:43:14.841Z,2.40
2023-01-05T06:48:18.242Z,2.60
2023-01-05T06:53:22.965Z,2.67
2023-01-05T07:03:29.767Z,2.80
2023-01-05T07:08:34.837Z,3.00
2023-01-05T07:13:38.291Z,2.70
2023-01-05T07:18:41.932Z,2.90
2023-01-05T07:23:46.953Z,3.03
2023-01-05T07:28:50.479Z,2.83
2023-01-05T07:33:53.967Z,2.83
2023-01-05T07:38:59.752Z,2.10
2023-01-05T07:44:03.314Z,2.40
2023-01-05T07:49:07.029Z,2.67
2023-01-05T07:54:11.934Z,2.20
2023-01-05T07:59:15.712Z,2.13
2023-01-05T08:04:19.187Z,2.33
2023-01-05T08:09:41.574Z,2.37
2023-01-05T08:14:45.034Z,2.33
2023-01-05T08:19:48.627Z,2.40
2023-01-05T08:24:53.544Z,2.10
2023-01-05T08:29:57.235Z,2.17
2023-01-05T08:35:00.534Z,2.00
2023-01-05T08:40:07.186Z,2.17
2023-01-05T08:45:11.582Z,2.57
2023-01-05T08:50:15.029Z,2.28
2023-01-05T09:00:25.249Z,2.20
2023-01-05T09:05:28.702Z,2.20
2023-01-05T09:10:33.815Z,2.30
2023-01-05T09:15:37.297Z,2.60
2023-01-05T09:20:40.915Z,2.63
2023-01-05T09:25:45.649Z,2.47
2023-01-05T09:35:56.358Z,2.20
2023-01-05T09:41:06.601Z,2.30
2023-01-05T09:46:14.933Z,2.20
2023-01-05T09:51:18.428Z,2.57
2023-01-05T10:01:56.907Z,2.70
2023-01-05T10:07:04.901Z,2.90
2023-01-05T10:12:36.204Z,2.85
2023-01-05T10:17:43.890Z,3.10
2023-01-05T10:23:02.632Z,2.97
2023-01-05T10:28:22.516Z,3.50
2023-01-05T10:33:41.705Z,2.73
2023-01-05T10:38:57.317Z,2.83
2023-01-05T10:44:23.059Z,2.80
2023-01-05T10:49:29.188Z,3.60
2023-01-05T10:54:40.148Z,3.27
2023-01-05T10:59:58.107Z,2.83
2023-01-05T11:05:06.360Z,3.40
2023-01-05T11:10:22.667Z,3.10
2023-01-05T11:15:27.718Z,2.77
2023-01-05T11:20:31.334Z,3.00
2023-01-05T11:25:35.174Z,3.13
2023-01-05T11:30:43.393Z,3.17
2023-01-05T11:35:47.108Z,2.40
2023-01-05T11:40:50.773Z,2.30
2023-01-05T11:45:58.251Z,3.10
2023-01-05T11:51:02.990Z,3.17
2023-01-05T11:56:15.692Z,3.50
2023-01-05T12:01:56.009Z,2.83
2023-01-05T12:07:14.851Z,2.97
2023-01-05T12:12:37.819Z,3.07
2023-01-05T12:17:52.235Z,2.97
2023-01-05T12:23:22.337Z,3.30
2023-01-05T12:28:42.541Z,2.90
2023-01-05T12:34:13.402Z,2.93
2023-01-05T12:39:48.318Z,3.23
2023-01-05T12:45:09.877Z,3.65
2023-01-05T12:50:27.960Z,3.33
2023-01-05T12:55:39.343Z,3.30
2023-01-05T13:00:46.662Z,3.87
2023-01-05T13:05:59.479Z,3.77
2023-01-05T13:11:09.106Z,3.80
2023-01-05T13:16:16.789Z,3.53
2023-01-05T13:21:23.077Z,3.83
2023-01-05T13:26:26.751Z,3.80
2023-01-05T13:31:54.497Z,4.23
2023-01-05T13:37:21.095Z,3.57
2023-01-05T13:42:52.946Z,4.10
2023-01-05T13:48:34.066Z,4.73
2023-01-05T13:53:52.567Z,4.57
2023-01-05T13:59:02.764Z,4.00
2023-01-05T14:04:08.160Z,4.17
2023-01-05T14:09:19.060Z,3.63
2023-01-05T14:19:53.913Z,4.03
2023-01-05T14:24:58.870Z,3.97
2023-01-05T14:30:04.501Z,3.90
2023-01-05T14:35:20.399Z,4.40
2023-01-05T14:40:51.595Z,3.60
2023-01-05T14:46:05.020Z,4.00
2023-01-05T14:51:13.531Z,3.40
2023-01-05T14:56:22.690Z,3.90
2023-01-05T15:01:30.331Z,4.23
2023-01-05T15:06:47.825Z,4.20
2023-01-05T15:12:30.138Z,3.87
2023-01-05T15:18:11.538Z,4.53
2023-01-05T15:23:36.590Z,4.80
2023-01-05T15:29:05.997Z,5.00
2023-01-05T15:34:20.365Z,4.90
2023-01-05T15:39:26.391Z,4.78
2023-01-05T15:44:34.355Z,4.57
2023-01-05T15:49:41.361Z,4.53
2023-01-05T15:54:44.869Z,4.60
2023-01-05T15:59:50.671Z,4.97
2023-01-05T16:05:15.563Z,4.50
2023-01-05T16:10:22.876Z,5.17
2023-01-05T16:15:27.431Z,5.83
2023-01-05T16:20:33.085Z,5.83
2023-01-05T16:25:41.067Z,5.40
2023-01-05T16:30:46.317Z,5.20
2023-01-05T16:35:53.055Z,5.93
2023-01-05T16:41:15.097Z,5.37
2023-01-05T16:46:41.027Z,6.23
2023-01-05T16:51:46.188Z,6.50
2023-01-05T16:56:57.989Z,6.63
2023-01-05T17:02:02.171Z,5.90
2023-01-05T17:07:07.561Z,5.93
2023-01-05T17:12:12.187Z,5.97
2023-01-05T17:17:16.291Z,6.30
2023-01-05T17:27:24.768Z,6.87
2023-01-05T17:32:28.174Z,5.78
2023-01-05T17:37:33.286Z,7.53
2023-01-05T17:42:45.664Z,7.77
2023-01-05T17:47:50.278Z,5.83
2023-01-05T17:52:55.492Z,6.57
2023-01-05T17:57:59.894Z,7.67
2023-01-05T18:03:03.263Z,6.63
2023-01-05T18:08:08.367Z,6.22
2023-01-05T18:13:12.492Z,5.93
2023-01-05T18:18:16.607Z,5.90
2023-01-05T18:23:24.472Z,5.00
2023-01-05T18:28:29.797Z,4.00
2023-01-05T18:33:33.881Z,4.23
2023-01-05T18:38:39.286Z,3.93
2023-01-05T18:43:42.945Z,3.53
2023-01-05T18:48:50.421Z,4.47
2023-01-05T18:53:55.194Z,3.57
2023-01-05T18:58:59.025Z,4.13
2023-01-05T19:09:10.236Z,3.07
2023-01-05T19:14:14.983Z,4.07
2023-01-05T19:19:20.438Z,3.53
2023-01-05T19:24:27.057Z,3.73
2023-01-05T19:29:30.669Z,3.60
2023-01-05T19:34:34.115Z,3.08
2023-01-05T19:39:39.121Z,3.53
2023-01-05T19:44:42.654Z,3.37
2023-01-05T19:49:46.210Z,3.50
2023-01-05T19:54:51.052Z,3.25
2023-01-05T19:59:54.857Z,3.60
2023-01-05T20:04:58.333Z,3.47
2023-01-05T20:10:03.332Z,3.97
2023-01-05T20:15:07.485Z,2.67
2023-01-05T20:20:12.982Z,3.03
2023-01-05T20:25:17.880Z,2.87
2023-01-05T20:30:21.597Z,3.00
2023-01-05T20:35:25.136Z,3.23
2023-01-05T20:45:33.775Z,2.90
2023-01-05T20:50:37.249Z,3.03
2023-01-05T20:55:42.273Z,2.90
2023-01-05T21:01:09.542Z,2.87
2023-01-05T21:06:11.806Z,3.13
2023-01-05T21:11:18.438Z,3.53
2023-01-05T21:16:26.279Z,2.50
2023-01-05T21:21:30.911Z,3.00
2023-01-05T21:26:36.038Z,3.07
2023-01-05T21:31:39.747Z,3.60
2023-01-05T21:36:45.569Z,2.47
2023-01-05T21:42:09.994Z,2.07
2023-01-05T21:47:14.294Z,3.00
2023-01-05T21:52:34.857Z,2.70
2023-01-05T21:57:39.945Z,2.57
2023-01-05T22:02:43.321Z,2.07
2023-01-05T22:07:46.923Z,2.80
2023-01-05T22:12:51.629Z,2.57
2023-01-05T22:17:55.389Z,3.43
2023-01-05T22:22:58.697Z,3.60
2023-01-05T22:28:03.655Z,2.83
2023-01-05T22:33:07.086Z,2.70
2023-01-05T22:43:15.040Z,1.88
2023-01-05T22:48:19.615Z,2.57
2023-01-05T22:53:22.926Z,2.80
2023-01-05T23:03:31.281Z,3.20
2023-01-05T23:08:35.751Z,2.43
2023-01-05T23:13:41.363Z,2.27
2023-01-05T23:18:45.267Z,3.20
2023-01-05T23:23:49.388Z,2.83
2023-01-05T23:28:55.269Z,2.47
2023-01-05T23:33:59.077Z,2.43
2023-01-05T23:39:02.734Z,2.70
2023-01-05T23:44:08.299Z,2.60
2023-01-05T23:49:11.555Z,2.10
2023-01-05T23:59:19.867Z,2.30
